Time,TemperatureF,DewpointF,PressureIn,WindDirection,WindDirectionDegrees,WindSpeedMPH,WindSpeedGustMPH,Humidity,HourlyPrecipIn,Conditions,Clouds,dailyrainin,SoftwareType,DateUTC
2013-03-21 00:14:00,58.9,55.0,29.82,NW,313,0.0,0.0,87,0.00,,,0.00,WeatherDisplay:10.37,2013-03-21 04:14:00,
2013-03-21 00:30:00,58.6,55.1,29.82,NW,313,0.0,0.0,88,0.00,,,0.00,WeatherDisplay:10.37,2013-03-21 04:30:00,
2013-03-21 00:45:00,58.6,55.1,29.82,NW,314,0.0,0.0,88,0.00,,,0.00,WeatherDisplay:10.37,2013-03-21 04:45:00,
2013-03-21 00:59:00,58.6,55.1,29.82,WNW,303,0.0,1.0,88,0.00,,,0.00,WeatherDisplay:10.37,2013-03-21 04:59:00,
2013-03-21 01:14:00,58.6,55.1,29.82,WNW,303,0.0,0.0,88,0.00,,,0.00,WeatherDisplay:10.37,2013-03-21 05:14:00,
2013-03-21 01:29:00,58.4,55.2,29.83,WNW,300,0.0,0.0,89,0.00,,,0.00,WeatherDisplay:10.37,2013-03-21 05:29:00,
2013-03-21 01:44:00,58.1,54.9,29.82,WNW,298,0.0,0.0,89,0.00,,,0.00,WeatherDisplay:10.37,2013-03-21 05:44:00,
2013-03-21 01:59:00,57.8,54.6,29.82,WNW,294,0.0,0.0,89,0.00,,,0.00,WeatherDisplay:10.37,2013-03-21 05:59:00,
2013-03-21 02:14:00,57.5,54.3,29.81,WNW,291,0.0,0.0,89,0.00,,,0.00,WeatherDisplay:10.37,2013-03-21 06:14:00,
2013-03-21 02:30:00,57.2,54.3,29.81,WNW,303,0.0,2.0,90,0.00,,,0.00,WeatherDisplay:10.37,2013-03-21 06:30:00,
2013-03-21 02:44:00,57.3,54.4,29.82,NW,309,0.0,7.0,90,0.00,,,0.00,WeatherDisplay:10.37,2013-03-21 06:44:00,
2013-03-21 02:59:00,56.7,53.8,29.82,NW,319,1.0,7.0,90,0.00,,,0.00,WeatherDisplay:10.37,2013-03-21 06:59:00,
2013-03-21 03:14:00,56.3,53.4,29.83,NNW,343,0.0,3.0,90,0.00,,,0.00,WeatherDisplay:10.37,2013-03-21 07:14:00,
2013-03-21 03:29:00,55.9,53.0,29.82,NNW,330,0.0,6.0,90,0.00,,,0.00,WeatherDisplay:10.37,2013-03-21 07:29:00,
2013-03-21 03:44:00,55.4,52.8,29.82,NW,323,0.0,0.0,91,0.00,,,0.00,WeatherDisplay:10.37,2013-03-21 07:44:00,
2013-03-21 03:59:00,55.1,52.5,29.82,NW,310,1.0,5.0,91,0.00,,,0.00,WeatherDisplay:10.37,2013-03-21 07:59:00,
2013-03-21 04:14:00,54.7,52.1,29.82,WNW,296,0.0,6.0,91,0.00,,,0.00,WeatherDisplay:10.37,2013-03-21 08:14:00,
2013-03-21 04:29:00,54.4,51.8,29.82,WNW,296,0.0,0.0,91,0.00,,,0.00,WeatherDisplay:10.37,2013-03-21 08:29:00,
2013-03-21 04:44:00,54.1,51.5,29.82,WNW,300,0.0,0.0,91,0.00,,,0.00,WeatherDisplay:10.37,2013-03-21 08:44:00,
2013-03-21 04:59:00,53.9,51.3,29.82,WNW,300,0.0,0.0,91,0.00,,,0.00,WeatherDisplay:10.37,2013-03-21 08:59:00,
2013-03-21 05:14:00,53.6,51.0,29.82,WNW,300,0.0,0.0,91,0.00,,,0.00,WeatherDisplay:10.37,2013-03-21 09:14:00,
2013-03-21 05:29:00,53.2,50.6,29.83,WNW,291,0.0,5.0,91,0.00,,,0.00,WeatherDisplay:10.37,2013-03-21 09:29:00,
2013-03-21 05:44:00,52.9,49.7,29.84,WNW,298,0.0,6.0,89,0.00,,,0.00,WeatherDisplay:10.37,2013-03-21 09:44:00,
2013-03-21 05:59:00,52.8,49.0,29.84,NNW,338,0.0,0.0,87,0.00,,,0.00,WeatherDisplay:10.37,2013-03-21 09:59:00,
2013-03-21 06:14:00,52.5,47.8,29.84,NW,322,0.0,7.0,84,0.00,,,0.00,WeatherDisplay:10.37,2013-03-21 10:14:00,
2013-03-21 06:29:00,51.9,46.3,29.85,NW,324,0.0,5.0,81,0.00,,,0.00,WeatherDisplay:10.37,2013-03-21 10:29:00,
2013-03-21 06:44:00,51.6,45.0,29.85,NW,315,0.0,7.0,78,0.00,,,0.00,WeatherDisplay:10.37,2013-03-21 10:44:00,
2013-03-21 06:59:00,51.7,43.7,29.85,NW,315,0.0,6.0,74,0.00,CLR,,0.00,WeatherDisplay:10.37,2013-03-21 10:59:00,
2013-03-21 07:14:00,51.7,43.0,29.86,NW,312,0.0,8.0,72,0.00,CLR,,0.00,WeatherDisplay:10.37,2013-03-21 11:14:00,
2013-03-21 07:30:00,51.4,42.3,29.87,NW,312,1.0,10.0,71,0.00,CLR,,0.00,WeatherDisplay:10.37,2013-03-21 11:30:00,
2013-03-21 07:44:00,51.0,41.9,29.88,NW,314,0.0,2.0,71,0.00,CLR,,0.00,WeatherDisplay:10.37,2013-03-21 11:44:00,
2013-03-21 07:59:00,50.5,41.1,29.88,NW,314,0.0,0.0,70,0.00,CLR,,0.00,WeatherDisplay:10.37,2013-03-21 11:59:00,
2013-03-21 08:14:00,50.8,39.8,29.88,NW,317,0.0,5.0,66,0.00,CLR,,0.00,WeatherDisplay:10.37,2013-03-21 12:14:00,
2013-03-21 08:29:00,51.8,40.0,29.88,NW,320,0.0,8.0,64,0.00,CLR,,0.00,WeatherDisplay:10.37,2013-03-21 12:29:00,
2013-03-21 08:44:00,52.7,38.7,29.88,NW,319,1.0,8.0,59,0.00,CLR,,0.00,WeatherDisplay:10.37,2013-03-21 12:44:00,
2013-03-21 08:59:00,53.6,39.2,29.89,NW,320,1.0,7.0,58,0.00,CLR,,0.00,WeatherDisplay:10.37,2013-03-21 12:59:00,
2013-03-21 09:14:00,54.5,36.2,29.89,NW,326,3.0,12.0,50,0.00,CLR,,0.00,WeatherDisplay:10.37,2013-03-21 13:14:00,
2013-03-21 09:29:00,55.1,34.7,29.90,NW,321,6.0,12.0,46,0.00,CLR,,0.00,WeatherDisplay:10.37,2013-03-21 13:29:00,
2013-03-21 09:44:00,54.3,36.1,29.90,NW,322,7.0,14.0,50,0.00,CLR,,0.00,WeatherDisplay:10.37,2013-03-21 13:44:00,
2013-03-21 09:59:00,55.0,37.2,29.90,NW,313,3.0,12.0,51,0.00,CLR,,0.00,WeatherDisplay:10.37,2013-03-21 13:59:00,
2013-03-21 10:14:00,55.9,36.5,29.91,NNW,330,5.0,13.0,48,0.00,CLR,,0.00,WeatherDisplay:10.37,2013-03-21 14:14:00,
2013-03-21 10:29:00,56.3,37.9,29.91,NW,311,0.0,10.0,50,0.00,CLR,,0.00,WeatherDisplay:10.37,2013-03-21 14:29:00,
2013-03-21 10:44:00,57.6,35.8,29.91,NW,315,0.0,10.0,44,0.00,CLR,,0.00,WeatherDisplay:10.37,2013-03-21 14:44:00,
2013-03-21 10:59:00,58.4,34.2,29.91,NW,316,2.0,12.0,40,0.00,CLR,,0.00,WeatherDisplay:10.37,2013-03-21 14:59:00,
2013-03-21 11:14:00,59.8,33.4,29.92,NW,308,0.0,10.0,37,0.00,CLR,,0.00,WeatherDisplay:10.37,2013-03-21 15:14:00,
2013-03-21 11:29:00,60.3,33.9,29.92,NW,322,0.0,11.0,37,0.00,CLR,,0.00,WeatherDisplay:10.37,2013-03-21 15:29:00,
2013-03-21 11:44:00,61.6,32.9,29.91,NNW,328,3.0,13.0,34,0.00,CLR,,0.00,WeatherDisplay:10.37,2013-03-21 15:44:00,
2013-03-21 11:59:00,61.4,32.0,29.92,West,266,0.0,9.0,33,0.00,CLR,,0.00,WeatherDisplay:10.37,2013-03-21 15:59:00,
2013-03-21 12:14:00,62.1,31.9,29.92,WNW,291,1.0,9.0,32,0.00,CLR,,0.00,WeatherDisplay:10.37,2013-03-21 16:14:00,
2013-03-21 12:29:00,62.3,32.8,29.92,NW,309,0.0,9.0,33,0.00,CLR,,0.00,WeatherDisplay:10.37,2013-03-21 16:29:00,
2013-03-21 12:44:00,63.9,31.0,29.91,WSW,245,3.0,9.0,29,0.00,CLR,,0.00,WeatherDisplay:10.37,2013-03-21 16:44:00,
2013-03-21 12:59:00,63.8,32.6,29.90,West,263,3.0,14.0,31,0.00,CLR,,0.00,WeatherDisplay:10.37,2013-03-21 16:59:00,
2013-03-21 13:14:00,65.0,31.1,29.90,WSW,243,1.0,10.0,28,0.00,CLR,,0.00,WeatherDisplay:10.37,2013-03-21 17:14:00,
2013-03-21 13:29:00,65.7,33.4,29.90,WSW,257,0.0,8.0,30,0.00,CLR,,0.00,WeatherDisplay:10.37,2013-03-21 17:29:00,
2013-03-21 13:44:00,66.4,31.4,29.88,West,281,0.0,12.0,27,0.00,CLR,,0.00,WeatherDisplay:10.37,2013-03-21 17:44:00,
2013-03-21 13:59:00,66.3,30.4,29.87,NW,318,0.0,7.0,26,0.00,CLR,,0.00,WeatherDisplay:10.37,2013-03-21 17:59:00,
2013-03-21 14:14:00,67.6,32.4,29.86,West,262,1.0,9.0,27,0.00,CLR,,0.00,WeatherDisplay:10.37,2013-03-21 18:14:00,
2013-03-21 14:29:00,69.0,34.5,29.85,WSW,245,0.0,6.0,28,0.00,CLR,,0.00,WeatherDisplay:10.37,2013-03-21 18:29:00,
2013-03-21 14:44:00,69.4,33.9,29.85,WSW,253,0.0,8.0,27,0.00,CLR,,0.00,WeatherDisplay:10.37,2013-03-21 18:44:00,
2013-03-21 14:59:00,68.5,31.2,29.85,WSW,244,0.0,7.0,25,0.00,,,0.00,WeatherDisplay:10.37,2013-03-21 18:59:00,
2013-03-21 15:14:00,68.2,31.0,29.85,WSW,246,6.0,12.0,25,0.00,,,0.00,WeatherDisplay:10.37,2013-03-21 19:14:00,
2013-03-21 15:29:00,68.5,32.2,29.84,WSW,246,0.0,10.0,26,0.00,,,0.00,WeatherDisplay:10.37,2013-03-21 19:29:00,
2013-03-21 15:44:00,67.6,30.5,29.84,WSW,243,1.0,12.0,25,0.00,,,0.00,WeatherDisplay:10.37,2013-03-21 19:44:00,
2013-03-21 16:00:00,68.8,28.4,29.84,WSW,246,0.0,8.0,22,0.00,,,0.00,WeatherDisplay:10.37,2013-03-21 20:00:00,
2013-03-21 16:14:00,69.4,28.9,29.83,WSW,240,0.0,12.0,22,0.00,,,0.00,WeatherDisplay:10.37,2013-03-21 20:14:00,
2013-03-21 16:29:00,68.8,30.5,29.83,WSW,245,2.0,12.0,24,0.00,,,0.00,WeatherDisplay:10.37,2013-03-21 20:29:00,
2013-03-21 16:44:00,69.2,31.9,29.82,WSW,237,2.0,9.0,25,0.00,,,0.00,WeatherDisplay:10.37,2013-03-21 20:44:00,
2013-03-21 16:59:00,69.9,31.4,29.82,WSW,242,0.0,13.0,24,0.00,,,0.00,WeatherDisplay:10.37,2013-03-21 20:59:00,
2013-03-21 17:15:00,70.6,33.0,29.82,SW,231,0.0,7.0,25,0.00,,,0.00,WeatherDisplay:10.37,2013-03-21 21:15:00,
2013-03-21 17:29:00,69.9,32.5,29.82,WSW,254,1.0,8.0,25,0.00,,,0.00,WeatherDisplay:10.37,2013-03-21 21:29:00,
2013-03-21 17:44:00,70.5,34.0,29.82,SSW,200,0.0,5.0,26,0.00,,,0.00,WeatherDisplay:10.37,2013-03-21 21:44:00,
2013-03-21 17:59:00,70.1,32.6,29.83,WSW,237,0.0,3.0,25,0.00,CLR,,0.00,WeatherDisplay:10.37,2013-03-21 21:59:00,
2013-03-21 18:14:00,68.5,31.2,29.83,WSW,248,0.0,6.0,25,0.00,CLR,,0.00,WeatherDisplay:10.37,2013-03-21 22:14:00,
2013-03-21 18:29:00,67.9,29.7,29.83,WSW,239,0.0,2.0,24,0.00,CLR,,0.00,WeatherDisplay:10.37,2013-03-21 22:29:00,
2013-03-21 18:44:00,67.3,29.2,29.83,SW,235,0.0,5.0,24,0.00,CLR,,0.00,WeatherDisplay:10.37,2013-03-21 22:44:00,
2013-03-21 18:59:00,66.9,28.9,29.84,WSW,250,0.0,0.0,24,0.00,CLR,,0.00,WeatherDisplay:10.37,2013-03-21 22:59:00,
2013-03-21 19:14:00,66.3,29.4,29.84,WSW,250,0.0,0.0,25,0.00,CLR,,0.00,WeatherDisplay:10.37,2013-03-21 23:14:00,
2013-03-21 19:30:00,65.3,30.4,29.84,WSW,257,0.0,0.0,27,0.00,CLR,,0.00,WeatherDisplay:10.37,2013-03-21 23:30:00,
2013-03-21 19:45:00,63.9,29.2,29.84,WSW,257,0.0,0.0,27,0.00,CLR,,0.00,WeatherDisplay:10.37,2013-03-21 23:45:00,
2013-03-21 19:59:00,62.4,28.9,29.84,WSW,257,0.0,0.0,28,0.00,,,0.00,WeatherDisplay:10.37,2013-03-21 23:59:00,
2013-03-21 20:14:00,61.1,29.4,29.85,WSW,257,0.0,0.0,30,0.00,,,0.00,WeatherDisplay:10.37,2013-03-22 00:14:00,
2013-03-21 20:29:00,59.8,31.3,29.85,WSW,257,0.0,0.0,34,0.00,,,0.00,WeatherDisplay:10.37,2013-03-22 00:29:00,
2013-03-21 20:44:00,58.4,32.9,29.86,WSW,257,0.0,0.0,38,0.00,,,0.00,WeatherDisplay:10.37,2013-03-22 00:44:00,
2013-03-21 20:59:00,57.3,32.6,29.85,WSW,257,0.0,0.0,39,0.00,,,0.00,WeatherDisplay:10.37,2013-03-22 00:59:00,
2013-03-21 21:14:00,56.3,34.6,29.87,WSW,257,0.0,0.0,44,0.00,,,0.00,WeatherDisplay:10.37,2013-03-22 01:14:00,
2013-03-21 21:29:00,55.6,34.6,29.87,WSW,257,0.0,0.0,45,0.00,,,0.00,WeatherDisplay:10.37,2013-03-22 01:29:00,
2013-03-21 21:44:00,55.4,34.4,29.88,WSW,257,0.0,0.0,45,0.00,,,0.00,WeatherDisplay:10.37,2013-03-22 01:44:00,
2013-03-21 21:59:00,55.3,35.9,29.88,WSW,257,0.0,0.0,48,0.00,,,0.00,WeatherDisplay:10.37,2013-03-22 01:59:00,
2013-03-21 22:14:00,54.7,37.4,29.89,WSW,257,0.0,0.0,52,0.00,,,0.00,WeatherDisplay:10.37,2013-03-22 02:14:00,
2013-03-21 22:29:00,54.2,38.4,29.89,WSW,257,0.0,0.0,55,0.00,,,0.00,WeatherDisplay:10.37,2013-03-22 02:29:00,
2013-03-21 22:45:00,53.8,39.4,29.89,WSW,257,0.0,0.0,58,0.00,,,0.00,WeatherDisplay:10.37,2013-03-22 02:45:00,
2013-03-21 22:59:00,53.2,40.1,29.90,WSW,257,0.0,0.0,61,0.00,,,0.00,WeatherDisplay:10.37,2013-03-22 02:59:00,
2013-03-21 23:14:00,52.9,40.6,29.90,WSW,257,0.0,0.0,63,0.00,,,0.00,WeatherDisplay:10.37,2013-03-22 03:14:00,
2013-03-21 23:29:00,53.3,41.4,29.90,WSW,257,0.0,4.0,64,0.00,,,0.00,WeatherDisplay:10.37,2013-03-22 03:29:00,
2013-03-21 23:44:00,53.5,41.2,29.90,WSW,254,0.0,0.0,63,0.00,,,0.00,WeatherDisplay:10.37,2013-03-22 03:44:00,
2013-03-21 23:59:00,52.9,41.0,29.90,WSW,254,0.0,0.0,64,0.00,,,0.00,WeatherDisplay:10.37,2013-03-22 03:59:00,